Time;durP1;ratioP1;P1;durP2;ratioP2;P2;SDS_P1;SDS_P2;PMS_P1;PMS_P2;Temp;Humidity;BMP_temperature;BMP_pressure;BME280_temperature;BME280_humidity;BME280_pressure;Samples;Min_cycle;Max_cycle;Signal;HPM_P1;HPM_P2
2022/03/17 00:00:11;;;;;;;19.10;11.25;;;;;;;15.29;46.94;101877.22;4962368;28;123897;-64
2022/03/17 00:02:39;;;;;;;24.25;11.60;;;;;;;15.29;46.96;101871.88;4961699;28;110198;-64
2022/03/17 00:05:08;;;;;;;17.80;11.60;;;;;;;15.28;47.07;101864.84;4960445;28;109920;-65
2022/03/17 00:07:38;;;;;;;19.48;11.68;;;;;;;15.27;47.18;101867.56;4960866;28;122842;-64
2022/03/17 00:10:14;;;;;;;20.77;11.63;;;;;;;15.25;47.31;101864.13;4963353;28;123772;-64
2022/03/17 00:12:43;;;;;;;18.70;11.60;;;;;;;15.25;47.12;101864.97;4960791;28;109545;-64
2022/03/17 00:15:12;;;;;;;19.52;11.50;;;;;;;15.24;47.09;101863.25;4959822;28;108895;-64
2022/03/17 00:17:41;;;;;;;19.38;11.95;;;;;;;15.24;47.31;101857.91;4964961;28;124792;-64
2022/03/17 00:20:10;;;;;;;20.00;11.50;;;;;;;15.24;47.41;101859.69;4964329;28;123186;-64
2022/03/17 00:22:38;;;;;;;19.70;12.27;;;;;;;15.23;47.29;101860.66;4965755;28;109312;-64
2022/03/17 00:25:07;;;;;;;20.75;12.18;;;;;;;15.19;47.25;101863.47;4962016;28;110275;-64
2022/03/17 00:27:34;;;;;;;21.02;12.60;;;;;;;15.20;47.24;101875.03;4959938;28;124113;-64
2022/03/17 00:30:04;;;;;;;17.60;11.45;;;;;;;15.19;47.31;101870.59;4965804;28;124582;-64
2022/03/17 00:32:31;;;;;;;20.23;12.43;;;;;;;15.18;47.38;101868.88;4964224;28;108712;-63
2022/03/17 00:37:44;;;;;;;19.95;12.70;;;;;;;15.15;47.34;101853.03;4961866;28;124075;-64
2022/03/17 00:40:11;;;;;;;23.27;13.40;;;;;;;15.14;47.39;101851.28;4964302;28;123701;-64
2022/03/17 00:42:39;;;;;;;20.13;12.55;;;;;;;15.13;47.43;101854.91;4962196;28;110800;-64
2022/03/17 00:45:09;;;;;;;19.92;11.85;;;;;;;15.14;47.51;101845.94;4962116;28;109930;-63
2022/03/17 00:47:37;;;;;;;20.80;12.00;;;;;;;15.12;47.53;101848.69;4953801;28;124877;-63
2022/03/17 00:50:06;;;;;;;19.67;12.15;;;;;;;15.11;47.53;101846.97;4960240;28;123948;-63
2022/03/17 00:52:33;;;;;;;20.35;12.38;;;;;;;15.10;47.51;101839.88;4958823;28;108096;-64
2022/03/17 00:55:00;;;;;;;19.83;11.75;;;;;;;15.11;47.61;101851.44;4963998;28;110360;-64
2022/03/17 00:57:28;;;;;;;20.02;12.30;;;;;;;15.11;47.54;101854.13;4962516;28;124072;-64
2022/03/17 00:59:55;;;;;;;20.85;12.38;;;;;;;15.10;47.59;101860.38;4957342;28;122916;-64
2022/03/17 01:02:22;;;;;;;20.20;12.38;;;;;;;15.09;47.69;101864.00;4963865;28;109280;-63
2022/03/17 01:04:49;;;;;;;19.00;11.85;;;;;;;15.09;47.64;101864.00;4956425;28;110334;-64
2022/03/17 01:07:16;;;;;;;19.90;12.90;;;;;;;15.08;47.60;101862.25;4961959;28;124093;-67
2022/03/17 01:09:44;;;;;;;22.05;12.88;;;;;;;15.08;47.65;101862.25;4966904;28;124181;-63
2022/03/17 01:12:11;;;;;;;21.88;13.25;;;;;;;15.07;47.64;101860.50;4965105;28;109732;-64
2022/03/17 01:14:38;;;;;;;19.42;11.93;;;;;;;15.06;47.54;101861.47;4962321;28;110194;-63
2022/03/17 01:17:05;;;;;;;22.30;13.23;;;;;;;15.04;47.57;101860.69;4965894;28;124917;-64
2022/03/17 01:19:33;;;;;;;20.05;12.55;;;;;;;15.03;47.69;101858.94;4965161;28;123991;-64
2022/03/17 01:22:00;;;;;;;19.58;13.43;;;;;;;15.00;47.85;101862.63;4956855;28;109527;-64
2022/03/17 01:24:27;;;;;;;22.45;13.07;;;;;;;14.99;47.78;101864.44;4966123;28;110239;-64
2022/03/17 01:26:54;;;;;;;22.70;13.55;;;;;;;14.99;47.89;101853.75;4959512;28;124134;-64
2022/03/17 01:29:23;;;;;;;21.90;12.82;;;;;;;14.98;47.92;101857.34;4958895;28;124891;-64
2022/03/17 01:31:51;;;;;;;21.05;12.88;;;;;;;14.97;47.95;101868.97;4957825;28;110368;-64
2022/03/17 01:34:18;;;;;;;23.08;12.98;;;;;;;14.96;47.91;101869.03;4959272;28;110721;-64
2022/03/17 01:36:45;;;;;;;20.70;12.75;;;;;;;14.94;47.95;101861.09;4965592;28;123871;-64
2022/03/17 01:39:13;;;;;;;21.38;12.95;;;;;;;14.93;47.91;101863.84;4959065;28;124650;-64
2022/03/17 01:41:40;;;;;;;19.80;12.57;;;;;;;14.92;48.06;101862.97;4961141;28;109058;-64
2022/03/17 01:44:07;;;;;;;22.42;12.90;;;;;;;14.92;48.18;101862.97;4964670;28;108842;-64
2022/03/17 01:47:26;;;;;;;23.35;13.73;;;;;;;14.91;48.01;101866.56;4963483;28;124026;-64
2022/03/17 01:49:22;;;;;;;21.08;12.65;;;;;;;14.90;48.07;101859.53;4956287;28;123855;-64
2022/03/17 01:51:49;;;;;;;24.13;14.02;;;;;;;14.89;48.28;101856.94;4963903;28;111593;-64
2022/03/17 01:54:19;;;;;;;23.42;13.88;;;;;;;14.87;48.33;101854.31;4963684;28;111586;-63
2022/03/17 01:57:06;;;;;;;21.85;12.45;;;;;;;14.87;48.18;101846.31;4959216;28;124005;-64
2022/03/17 01:59:34;;;;;;;25.15;13.77;;;;;;;14.86;48.26;101857.06;4966782;28;123941;-63
2022/03/17 02:02:04;;;;;;;23.85;13.05;;;;;;;14.84;48.54;101859.78;4966191;28;108126;-64
2022/03/17 02:04:33;;;;;;;23.13;13.50;;;;;;;14.84;48.53;101854.47;4956065;28;110018;-63
2022/03/17 02:07:04;;;;;;;24.20;14.18;;;;;;;14.84;48.53;101851.78;4955698;28;123879;-64
2022/03/17 02:09:35;;;;;;;23.60;13.40;;;;;;;14.83;48.42;101842.06;4962298;28;124255;-63
2022/03/17 02:15:04;;;;;;;21.70;13.35;;;;;;;14.83;48.52;101847.41;4960018;28;109788;-63
2022/03/17 02:17:33;;;;;;;24.80;13.82;;;;;;;14.82;48.62;101861.66;4961077;28;123994;-63
2022/03/17 02:20:01;;;;;;;22.52;13.50;;;;;;;14.84;48.61;101854.47;4957014;28;123932;-63
2022/03/17 02:22:29;;;;;;;23.10;13.35;;;;;;;14.84;48.29;101846.44;4960622;28;111011;-64
2022/03/17 02:27:45;;;;;;;22.00;12.52;;;;;;;14.85;48.86;101850.00;4958817;28;124468;-64
2022/03/17 02:30:18;;;;;;;23.63;13.52;;;;;;;14.86;48.87;101852.59;4959128;28;123979;-63
2022/03/17 02:32:46;;;;;;;22.92;12.95;;;;;;;14.88;48.97;101855.19;4961602;28;109717;-63
2022/03/17 02:35:17;;;;;;;20.20;12.32;;;;;;;14.91;48.91;101860.38;4960778;28;110071;-65
2022/03/17 02:37:44;;;;;;;21.50;12.45;;;;;;;14.92;49.09;101868.31;4967727;28;123716;-64
2022/03/17 02:40:11;;;;;;;20.88;13.02;;;;;;;14.95;49.01;101862.81;4965214;28;124088;-64
2022/03/17 02:42:39;;;;;;;21.20;12.55;;;;;;;14.98;49.06;101870.69;4960722;28;109668;-63
2022/03/17 02:45:10;;;;;;;19.25;12.30;;;;;;;15.00;49.04;101865.28;4958804;28;108960;-63
2022/03/17 02:47:39;;;;;;;22.88;12.05;;;;;;;15.03;49.19;101874.94;4959541;28;123846;-64
2022/03/17 02:50:10;;;;;;;22.52;12.55;;;;;;;15.06;49.30;101880.13;4962085;28;124085;-64
2022/03/17 02:52:38;;;;;;;21.30;12.60;;;;;;;15.10;49.25;101876.38;4963222;28;109732;-63
2022/03/17 02:55:06;;;;;;;21.65;12.40;;;;;;;15.11;49.35;101883.47;4962284;28;109750;-64
2022/03/17 02:57:33;;;;;;;21.85;12.32;;;;;;;15.12;49.36;101886.03;4966017;28;124603;-64
2022/03/17 03:00:01;;;;;;;23.83;13.02;;;;;;;15.13;49.54;101887.78;4959693;28;124023;-64
2022/03/17 03:02:28;;;;;;;19.92;11.95;;;;;;;15.16;49.79;101881.41;4961687;28;109139;-64
2022/03/17 03:04:55;;;;;;;20.83;12.75;;;;;;;15.17;49.77;101888.50;4963313;28;109965;-64
2022/03/17 03:07:22;;;;;;;20.95;12.55;;;;;;;15.19;49.95;101891.97;4961607;28;124767;-64
2022/03/17 03:09:51;;;;;;;25.70;12.52;;;;;;;15.21;50.03;101900.75;4954563;28;124828;-64
2022/03/17 03:12:18;;;;;;;22.92;12.57;;;;;;;15.20;50.16;101901.72;4950642;28;110086;-64
2022/03/17 03:14:45;;;;;;;23.75;13.05;;;;;;;15.22;50.37;101902.50;4954884;28;109607;-64
2022/03/17 03:17:12;;;;;;;21.70;12.48;;;;;;;15.22;50.37;101894.50;4950662;28;123941;-63
2022/03/17 03:19:40;;;;;;;22.25;12.68;;;;;;;15.21;50.45;101911.44;4959461;28;125050;-64
2022/03/17 03:22:07;;;;;;;25.77;12.68;;;;;;;15.22;50.67;101923.84;4957030;28;109250;-64
2022/03/17 03:24:36;;;;;;;24.85;13.30;;;;;;;15.21;50.68;101922.09;4962184;28;110030;-64
2022/03/17 03:27:05;;;;;;;25.48;13.70;;;;;;;15.18;50.93;101925.78;4960359;28;124748;-64
2022/03/17 03:29:32;;;;;;;24.90;13.63;;;;;;;15.15;51.14;101927.75;4965811;28;124459;-64
2022/03/17 03:32:05;;;;;;;24.55;14.07;;;;;;;15.15;51.38;101941.09;4966673;28;109271;-64
2022/03/17 03:34:33;;;;;;;27.02;13.88;;;;;;;15.13;51.34;101950.97;4962764;28;109565;-64
2022/03/17 03:39:46;;;;;;;27.08;14.00;;;;;;;15.08;51.71;101955.63;4962982;28;122739;-64
2022/03/17 03:42:14;;;;;;;25.45;14.05;;;;;;;15.06;51.92;101965.53;4964699;28;109295;-64
2022/03/17 03:44:41;;;;;;;26.17;14.43;;;;;;;15.01;52.11;101972.84;4963065;28;109956;-64
2022/03/17 03:47:09;;;;;;;25.40;14.20;;;;;;;14.97;52.40;101983.69;4964164;28;125590;-64
2022/03/17 03:49:39;;;;;;;25.38;13.23;;;;;;;14.95;52.43;101985.53;4965043;28;123787;-64
2022/03/17 03:52:08;;;;;;;18.67;9.55;;;;;;;14.91;52.21;101989.28;4963323;28;112255;-63
2022/03/17 03:54:35;;;;;;;13.10;7.80;;;;;;;14.83;52.21;102002.09;4963855;28;109032;-64
2022/03/17 03:57:03;;;;;;;11.43;7.22;;;;;;;14.74;52.37;102008.69;4963133;28;122905;-64
2022/03/17 03:59:30;;;;;;;9.95;6.28;;;;;;;14.67;52.38;102011.69;4965875;28;123685;-64
2022/03/17 04:02:04;;;;;;;10.82;6.07;;;;;;;14.59;52.41;102020.88;4965644;28;109146;-65
2022/03/17 04:04:34;;;;;;;9.50;6.05;;;;;;;14.50;52.36;102034.56;4963823;28;109938;-64
2022/03/17 04:07:04;;;;;;;10.43;6.63;;;;;;;14.43;52.47;102033.13;4963774;28;123981;-63
2022/03/17 04:09:34;;;;;;;10.75;7.00;;;;;;;14.38;52.74;102043.09;4961977;28;124334;-64
2022/03/17 04:12:03;;;;;;;12.75;7.55;;;;;;;14.32;52.88;102038.03;4960438;28;109126;-64
2022/03/17 04:14:31;;;;;;;11.80;7.72;;;;;;;14.28;52.98;102047.06;4966546;28;109401;-63
2022/03/17 04:16:59;;;;;;;13.10;8.38;;;;;;;14.23;52.75;102065.06;4965239;28;124199;-63
2022/03/17 04:19:27;;;;;;;14.52;7.88;;;;;;;14.17;53.16;102077.69;4967327;28;124724;-64
2022/03/17 04:21:54;;;;;;;9.10;6.53;;;;;;;14.12;53.41;102082.34;4967386;28;109236;-64
2022/03/17 04:24:23;;;;;;;10.10;6.13;;;;;;;14.05;53.05;102088.84;4971679;28;108750;-64
2022/03/17 04:26:50;;;;;;;8.23;5.57;;;;;;;13.97;53.09;102096.28;4965868;28;124815;-64
2022/03/17 04:29:17;;;;;;;8.48;5.10;;;;;;;13.89;52.95;102107.22;4964704;28;123976;-64
2022/03/17 04:31:45;;;;;;;8.57;5.15;;;;;;;13.80;52.73;102116.44;4958947;28;109067;-63
2022/03/17 04:34:12;;;;;;;6.57;4.40;;;;;;;13.72;52.78;102129.16;4962789;28;109275;-64
2022/03/17 04:36:39;;;;;;;8.70;4.57;;;;;;;13.63;52.92;102129.50;4954650;28;126586;-63
2022/03/17 04:39:10;;;;;;;9.25;5.13;;;;;;;13.57;52.88;102140.41;4955471;28;123753;-63
2022/03/17 04:41:39;;;;;;;11.32;5.40;;;;;;;13.49;52.82;102147.81;4958577;28;113017;-64
2022/03/17 04:44:09;;;;;;;11.43;5.70;;;;;;;13.40;52.79;102164.97;4965516;28;113983;-63
2022/03/17 04:46:36;;;;;;;12.23;6.32;;;;;;;13.31;52.93;102171.47;4957476;28;123357;-63
2022/03/17 04:49:04;;;;;;;10.18;5.80;;;;;;;13.24;52.94;102180.53;4965131;28;124474;-63
2022/03/17 04:51:31;;;;;;;12.38;5.88;;;;;;;13.18;53.30;102180.78;4964071;28;115299;-63
2022/03/17 04:53:59;;;;;;;13.18;6.68;;;;;;;13.14;53.37;102187.13;4961744;28;116749;-65
2022/03/17 04:56:26;;;;;;;12.23;6.72;;;;;;;13.10;53.41;102193.47;4958656;28;124382;-63
2022/03/17 04:58:54;;;;;;;13.55;7.35;;;;;;;13.05;53.49;102202.47;4966356;28;124515;-63
2022/03/17 05:01:21;;;;;;;13.88;7.55;;;;;;;13.02;53.52;102202.56;4956708;28;114636;-63
2022/03/17 05:03:49;;;;;;;13.68;6.53;;;;;;;12.99;53.69;102218.63;4958364;28;114642;-63
2022/03/17 05:06:17;;;;;;;13.70;6.20;;;;;;;12.97;53.61;102219.59;4953488;28;123886;-65
2022/03/17 05:08:44;;;;;;;12.10;6.28;;;;;;;12.93;53.93;102234.78;4958803;28;123686;-64
2022/03/17 05:11:13;;;;;;;11.57;6.55;;;;;;;12.88;53.77;102242.03;4957107;28;114765;-64
2022/03/17 05:13:42;;;;;;;12.40;6.20;;;;;;;12.83;53.81;102239.53;4964413;28;112488;-63
2022/03/17 05:16:10;;;;;;;13.20;6.82;;;;;;;12.79;54.03;102242.31;4952907;28;125143;-63
2022/03/17 05:18:37;;;;;;;11.88;6.05;;;;;;;12.75;54.17;102249.56;4959523;28;123964;-63
2022/03/17 05:21:05;;;;;;;12.05;6.22;;;;;;;12.73;54.22;102263.81;4958440;28;114568;-64
2022/03/17 05:23:33;;;;;;;12.02;6.03;;;;;;;12.66;54.24;102269.31;4958281;28;114345;-63
2022/03/17 05:26:01;;;;;;;11.40;6.78;;;;;;;12.61;54.35;102265.91;4957033;28;123325;-63
2022/03/17 05:28:28;;;;;;;14.57;6.50;;;;;;;12.55;54.27;102279.41;4954591;28;123913;-63
2022/03/17 05:30:55;;;;;;;14.45;6.72;;;;;;;12.50;54.11;102289.28;4960272;28;114260;-63
2022/03/17 05:33:23;;;;;;;12.52;6.40;;;;;;;12.45;54.14;102309.81;4957874;28;113134;-63
2022/03/17 05:35:50;;;;;;;15.32;6.03;;;;;;;12.38;54.26;102318.91;4963574;28;124634;-64
2022/03/17 05:38:17;;;;;;;10.02;5.35;;;;;;;12.34;54.38;102325.19;4957881;28;123823;-63
2022/03/17 05:40:45;;;;;;;9.95;5.10;;;;;;;12.30;54.34;102340.38;4955716;28;115846;-64
2022/03/17 05:43:12;;;;;;;11.57;4.97;;;;;;;12.27;54.36;102351.94;4963131;28;114707;-64
2022/03/17 05:45:41;;;;;;;11.05;4.25;;;;;;;12.23;54.26;102347.63;4960194;28;124271;-64
2022/03/17 05:48:09;;;;;;;8.98;4.00;;;;;;;12.22;54.47;102359.19;4962586;28;124558;-64
2022/03/17 05:50:41;;;;;;;9.02;3.63;;;;;;;12.18;54.33;102357.50;4962188;28;114032;-65
2022/03/17 05:53:09;;;;;;;9.18;3.58;;;;;;;12.16;54.18;102363.78;4958412;28;114007;-65
2022/03/17 05:55:37;;;;;;;8.60;3.10;;;;;;;12.12;53.84;102378.94;4957196;28;123923;-64
2022/03/17 05:58:05;;;;;;;8.80;3.20;;;;;;;12.09;53.66;102379.00;4961329;28;123172;-64
2022/03/17 06:00:35;;;;;;;6.00;2.67;;;;;;;12.05;53.77;102382.66;4959745;28;115083;-64
2022/03/17 06:03:04;;;;;;;5.68;3.35;;;;;;;12.03;53.75;102405.72;4956838;28;114029;-64
2022/03/17 06:05:31;;;;;;;7.88;2.65;;;;;;;12.02;53.56;102404.88;4959121;28;124145;-64
2022/03/17 06:08:03;;;;;;;7.93;2.40;;;;;;;12.00;53.70;102405.81;4963202;28;125364;-65
2022/03/17 06:10:34;;;;;;;8.60;2.45;;;;;;;11.98;53.61;102412.94;4951326;28;114126;-65
2022/03/17 06:13:04;;;;;;;5.93;2.10;;;;;;;11.97;53.62;102416.50;4966105;28;114289;-64
2022/03/17 06:15:33;;;;;;;8.80;2.72;;;;;;;11.96;53.74;102415.66;4954759;28;124167;-64
2022/03/17 06:18:03;;;;;;;8.65;2.65;;;;;;;11.95;53.90;102435.13;4957067;28;123761;-64
2022/03/17 06:20:34;;;;;;;9.50;2.30;;;;;;;11.94;53.72;102440.47;4956179;28;114549;-64
2022/03/17 06:23:03;;;;;;;7.85;2.15;;;;;;;11.94;53.63;102449.34;4957960;28;114238;-64
2022/03/17 06:25:32;;;;;;;7.05;2.20;;;;;;;11.93;53.72;102441.41;4965071;28;124121;-64
2022/03/17 06:28:07;;;;;;;7.55;2.00;;;;;;;11.92;53.42;102450.25;4956990;28;123576;-63
2022/03/17 06:30:35;;;;;;;5.50;1.58;;;;;;;11.90;53.62;102475.97;4959246;28;115256;-64
2022/03/17 06:33:04;;;;;;;5.80;1.70;;;;;;;11.85;53.46;102474.28;4956225;28;115227;-63
2022/03/17 06:35:33;;;;;;;3.95;1.25;;;;;;;11.85;53.46;102479.59;4961714;28;124034;-63
2022/03/17 06:38:03;;;;;;;3.80;1.42;;;;;;;11.82;53.42;102487.63;4957161;28;123625;-63
2022/03/17 06:40:31;;;;;;;5.20;1.42;;;;;;;11.81;53.22;102496.50;4959226;28;114466;-66
2022/03/17 06:42:59;;;;;;;6.75;1.58;;;;;;;11.79;53.39;102492.13;4968484;28;114213;-64
2022/03/17 06:45:26;;;;;;;5.72;1.35;;;;;;;11.77;53.29;102510.78;4951800;28;124600;-64
2022/03/17 06:47:54;;;;;;;6.07;1.40;;;;;;;11.74;53.45;102505.53;4956899;28;124660;-64
2022/03/17 06:50:22;;;;;;;3.33;1.50;;;;;;;11.74;53.45;102517.94;4961726;28;114153;-63
2022/03/17 06:52:50;;;;;;;3.75;1.30;;;;;;;11.74;53.54;102518.78;4949357;28;113351;-63
2022/03/17 06:55:19;;;;;;;6.05;1.48;;;;;;;11.74;53.40;102521.44;4952655;28;124154;-63
2022/03/17 06:57:46;;;;;;;6.38;1.40;;;;;;;11.75;53.39;102533.78;4955355;28;124223;-63
2022/03/17 07:00:15;;;;;;;2.95;1.25;;;;;;;11.76;53.41;102535.56;4959676;28;114397;-64
2022/03/17 07:02:42;;;;;;;3.60;1.30;;;;;;;11.77;53.41;102542.63;4958297;28;114377;-63
2022/03/17 07:05:10;;;;;;;9.35;1.60;;;;;;;11.80;53.28;102550.50;4961179;28;124061;-63
2022/03/17 07:07:37;;;;;;;4.22;1.58;;;;;;;11.84;53.20;102548.66;4958273;28;123525;-63
2022/03/17 07:10:06;;;;;;;7.03;1.60;;;;;;;11.87;53.28;102554.75;4958044;28;114556;-64
2022/03/17 07:12:35;;;;;;;4.00;1.27;;;;;;;11.90;53.41;102548.53;4960417;28;114500;-64
2022/03/17 07:15:06;;;;;;;4.10;1.30;;;;;;;11.94;53.39;102562.63;4961555;28;124091;-64
2022/03/17 07:17:39;;;;;;;2.67;1.20;;;;;;;11.98;53.42;102561.63;4956067;28;124071;-63
2022/03/17 07:20:14;;;;;;;4.75;1.35;;;;;;;12.02;53.13;102573.94;4961622;28;115623;-64
2022/03/17 07:22:42;;;;;;;6.32;1.50;;;;;;;12.05;53.26;102584.47;4963149;28;115427;-64
2022/03/17 07:25:11;;;;;;;6.35;1.50;;;;;;;12.07;53.08;102577.34;4955611;28;123905;-63
2022/03/17 07:27:41;;;;;;;9.10;1.60;;;;;;;12.07;52.76;102595.94;4952011;28;124209;-63
2022/03/17 07:30:10;;;;;;;4.55;1.30;;;;;;;12.04;53.08;102604.88;4962274;28;114732;-64
2022/03/17 07:32:38;;;;;;;4.07;1.20;;;;;;;12.03;53.18;102602.25;4955309;28;114914;-64
2022/03/17 07:35:07;;;;;;;6.53;1.48;;;;;;;12.03;53.19;102619.03;4956108;28;124453;-64
2022/03/17 07:37:34;;;;;;;7.45;1.35;;;;;;;12.02;53.11;102629.72;4953479;28;124359;-64
2022/03/17 07:40:02;;;;;;;7.32;1.42;;;;;;;11.98;53.07;102620.03;4962508;28;114032;-64
2022/03/17 07:42:29;;;;;;;5.80;1.10;;;;;;;11.96;53.17;102632.50;4958764;28;114511;-63
2022/03/17 07:45:14;;;;;;;6.97;1.38;;;;;;;11.93;53.28;102637.88;4960467;28;124866;-63
2022/03/17 07:48:00;;;;;;;3.90;1.20;;;;;;;11.90;53.31;102643.25;4963546;28;124728;-64
2022/03/17 07:50:27;;;;;;;7.35;1.30;;;;;;;11.89;53.42;102645.00;4964536;28;114240;-64
2022/03/17 07:52:54;;;;;;;8.27;1.20;;;;;;;11.92;53.50;102649.41;4965081;28;114407;-64
2022/03/17 07:55:21;;;;;;;7.38;1.20;;;;;;;11.91;53.41;102660.94;4968981;28;123019;-64
2022/03/17 07:57:48;;;;;;;5.95;1.17;;;;;;;11.91;53.49;102660.94;4966095;28;124062;-64
2022/03/17 08:00:16;;;;;;;8.73;1.50;;;;;;;11.91;53.23;102660.94;4968957;28;113108;-64
2022/03/17 08:02:43;;;;;;;6.93;1.40;;;;;;;11.92;53.36;102663.53;4966054;28;114372;-65
2022/03/17 08:05:12;;;;;;;6.53;1.10;;;;;;;11.95;53.62;102673.25;4955407;28;124341;-63
2022/03/17 08:07:40;;;;;;;3.90;1.10;;;;;;;11.98;53.63;102673.16;4960349;28;123772;-63
2022/03/17 08:10:08;;;;;;;5.95;1.27;;;;;;;12.00;53.57;102682.84;4946769;28;115160;-63
2022/03/17 08:12:35;;;;;;;8.88;1.08;;;;;;;12.04;53.55;102684.53;4951907;28;114633;-63
2022/03/17 08:15:05;;;;;;;9.13;1.13;;;;;;;12.06;53.40;102700.44;4951093;28;125564;-62
2022/03/17 08:17:33;;;;;;;3.95;1.10;;;;;;;12.05;53.37;102706.66;4952888;28;123681;-62
2022/03/17 08:20:02;;;;;;;6.70;1.23;;;;;;;12.03;53.17;102708.47;4950594;28;114115;-63
2022/03/17 08:22:29;;;;;;;4.53;1.20;;;;;;;12.01;53.18;102712.94;4953806;28;113816;-63
2022/03/17 08:24:56;;;;;;;5.45;0.90;;;;;;;12.00;53.29;102716.53;4972307;28;123194;-62
2022/03/17 08:27:23;;;;;;;4.45;1.08;;;;;;;11.99;53.42;102728.03;4971975;28;123987;-63
2022/03/17 08:29:51;;;;;;;5.70;1.40;;;;;;;12.00;53.73;102724.47;4970592;28;114883;-63
2022/03/17 08:32:18;;;;;;;6.90;1.27;;;;;;;12.01;53.59;102726.22;4973021;28;115151;-64
2022/03/17 08:34:45;;;;;;;4.75;1.45;;;;;;;12.03;53.76;102735.03;4972425;28;124338;-62
2022/03/17 08:37:12;;;;;;;5.18;1.40;;;;;;;12.05;53.54;102738.53;4970710;28;124029;-62
2022/03/17 08:39:40;;;;;;;9.25;1.20;;;;;;;12.05;53.50;102739.41;4971209;28;113087;-63
2022/03/17 08:42:07;;;;;;;5.63;1.40;;;;;;;12.07;53.31;102742.00;4970019;28;113692;-63
2022/03/17 08:44:34;;;;;;;6.88;1.30;;;;;;;12.10;53.52;102747.28;4973546;28;124382;-63
2022/03/17 08:49:49;;;;;;;7.55;1.25;;;;;;;12.11;53.17;102764.97;4970319;28;114330;-63
2022/03/17 08:52:19;;;;;;;5.90;1.23;;;;;;;12.11;53.17;102775.59;4970761;28;114118;-62
2022/03/17 08:54:48;;;;;;;4.07;1.15;;;;;;;12.10;53.01;102784.47;4971457;28;125311;-62
2022/03/17 08:57:15;;;;;;;7.60;1.55;;;;;;;12.09;53.18;102788.00;4972212;28;123881;-62
2022/03/17 08:59:42;;;;;;;8.57;1.45;;;;;;;12.11;53.06;102791.53;4971787;28;115267;-64
2022/03/17 09:02:12;;;;;;;5.07;1.38;;;;;;;12.14;53.10;102786.16;4969488;28;114952;-62
2022/03/17 09:04:40;;;;;;;7.95;1.52;;;;;;;12.18;53.35;102795.78;4969857;28;125485;-62
2022/03/17 09:07:08;;;;;;;9.02;1.58;;;;;;;12.24;53.23;102803.66;4970985;28;123678;-62
2022/03/17 09:09:37;;;;;;;7.68;1.67;;;;;;;12.32;53.13;102799.94;4971736;28;114950;-62
2022/03/17 09:12:07;;;;;;;6.90;1.45;;;;;;;12.38;53.16;102799.84;4971885;28;113958;-62
2022/03/17 09:14:37;;;;;;;6.95;1.35;;;;;;;12.45;52.86;102812.06;4972345;28;124069;-62
2022/03/17 09:17:04;;;;;;;6.05;1.48;;;;;;;12.51;52.79;102811.97;4969811;28;123956;-62
2022/03/17 09:19:32;;;;;;;6.32;1.58;;;;;;;12.57;52.91;102822.44;4969953;28;114515;-62
2022/03/17 09:22:00;;;;;;;7.43;1.83;;;;;;;12.63;52.63;102811.66;4970620;28;114150;-61
2022/03/17 09:24:30;;;;;;;7.30;1.80;;;;;;;12.70;52.47;102822.19;4971868;28;124481;-62
2022/03/17 09:26:58;;;;;;;8.85;1.80;;;;;;;12.75;52.26;102830.91;4969002;28;123812;-62
2022/03/17 09:29:29;;;;;;;7.93;1.52;;;;;;;12.81;52.21;102820.16;4969391;28;114551;-63
2022/03/17 09:31:58;;;;;;;4.20;1.35;;;;;;;12.87;51.97;102832.44;4970127;28;114024;-62
2022/03/17 09:34:27;;;;;;;6.00;1.60;;;;;;;12.89;51.78;102838.59;4954570;28;123122;-62
2022/03/17 09:36:54;;;;;;;7.45;1.58;;;;;;;12.89;51.36;102833.28;4971568;28;123678;-62
2022/03/17 09:39:43;;;;;;;7.25;1.25;;;;;;;12.87;51.32;102849.28;4969109;28;114475;-62
2022/03/17 09:42:18;;;;;;;8.68;2.80;;;;;;;12.85;51.07;102848.44;4971093;28;112737;-63
2022/03/17 09:44:56;;;;;;;4.75;1.48;;;;;;;12.86;51.37;102871.44;4970906;28;123895;-62
2022/03/17 09:47:27;;;;;;;6.28;1.30;;;;;;;12.89;51.13;102865.19;4969014;28;124156;-62
2022/03/17 09:49:56;;;;;;;8.98;1.65;;;;;;;12.92;51.07;102871.34;4955401;28;116080;-62
2022/03/17 09:52:23;;;;;;;13.77;4.32;;;;;;;12.94;51.02;102869.50;4953557;28;116064;-62
2022/03/17 09:54:52;;;;;;;8.20;1.80;;;;;;;12.96;50.86;102875.66;4967022;28;123927;-62
2022/03/17 09:57:20;;;;;;;6.85;1.20;;;;;;;12.97;50.90;102871.22;4969487;28;123851;-63
2022/03/17 09:59:49;;;;;;;5.38;1.20;;;;;;;12.99;50.91;102877.38;4970587;28;114320;-63
2022/03/17 10:02:17;;;;;;;8.88;1.15;;;;;;;13.02;50.70;102883.50;4971556;28;114651;-63
2022/03/17 10:04:46;;;;;;;6.63;1.42;;;;;;;13.04;50.63;102892.31;4969227;28;124788;-63
2022/03/17 10:07:18;;;;;;;5.85;1.08;;;;;;;13.07;50.41;102887.84;4969194;28;123750;-63
2022/03/17 10:09:46;;;;;;;7.28;1.10;;;;;;;13.07;50.47;102895.81;4970019;28;114754;-63
2022/03/17 10:12:20;;;;;;;6.10;0.90;;;;;;;13.09;50.15;102891.34;4970767;28;114177;-63
2022/03/17 10:14:50;;;;;;;8.63;1.58;;;;;;;13.13;50.22;102901.00;4970538;28;124140;-63
2022/03/17 10:17:35;;;;;;;6.72;1.20;;;;;;;13.16;50.16;102906.25;4968617;28;123909;-63
2022/03/17 10:20:15;;;;;;;4.75;1.00;;;;;;;13.18;50.17;102920.41;4968517;28;114226;-63
2022/03/17 10:22:45;;;;;;;4.40;0.88;;;;;;;13.22;50.14;102922.06;4969615;28;113901;-63
2022/03/17 10:25:16;;;;;;;8.82;1.30;;;;;;;13.25;50.08;102924.66;4971167;28;124066;-63
2022/03/17 10:27:45;;;;;;;5.13;1.10;;;;;;;13.28;49.94;102927.28;4970522;28;123210;-62
2022/03/17 10:30:13;;;;;;;4.18;1.05;;;;;;;13.31;49.83;102929.88;4963697;28;114708;-62
2022/03/17 10:32:55;;;;;;;4.50;1.00;;;;;;;13.34;49.81;102935.13;4951398;28;113526;-62
2022/03/17 10:35:28;;;;;;;4.07;0.88;;;;;;;13.37;49.66;102943.06;4958367;28;123513;-62
2022/03/17 10:37:56;;;;;;;6.43;1.10;;;;;;;13.38;49.54;102938.63;4951718;28;123918;-63
2022/03/17 10:40:30;;;;;;;5.50;1.30;;;;;;;13.37;49.31;102943.06;4948171;28;115288;-62
2022/03/17 10:43:14;;;;;;;5.68;1.10;;;;;;;13.38;49.22;102944.81;4950139;28;114920;-62
2022/03/17 10:45:42;;;;;;;5.78;1.25;;;;;;;13.39;49.41;102951.88;4949105;28;124401;-63
2022/03/17 10:48:09;;;;;;;3.90;0.90;;;;;;;13.41;49.19;102951.81;4951522;28;123791;-63
2022/03/17 10:50:43;;;;;;;3.80;1.00;;;;;;;13.42;49.17;102973.09;4949832;28;114292;-62
2022/03/17 10:53:10;;;;;;;2.78;1.00;;;;;;;13.47;48.96;102980.09;4950268;28;113923;-61
2022/03/17 10:55:39;;;;;;;7.13;1.60;;;;;;;13.49;48.78;102983.63;4951491;28;97715;-62
2022/03/17 10:58:20;;;;;;;5.47;1.63;;;;;;;13.48;48.41;102981.84;4947419;28;124067;-62
2022/03/17 11:00:57;;;;;;;5.75;1.20;;;;;;;13.47;48.60;102996.06;4950509;28;114335;-62
2022/03/17 11:03:25;;;;;;;4.53;1.15;;;;;;;13.49;48.69;102994.28;4950711;28;113849;-62
2022/03/17 11:05:53;;;;;;;3.65;0.95;;;;;;;13.52;48.71;102999.50;4934119;28;123135;-64
2022/03/17 11:08:21;;;;;;;4.72;1.17;;;;;;;13.54;48.68;103006.56;4950563;28;124085;-62
2022/03/17 11:10:51;;;;;;;5.22;1.00;;;;;;;13.53;48.44;103001.28;4950380;28;114088;-62
2022/03/17 11:13:19;;;;;;;4.53;1.05;;;;;;;13.54;48.58;103013.66;4951489;28;114016;-63
2022/03/17 11:16:05;;;;;;;5.30;1.00;;;;;;;13.53;48.53;103010.13;4949280;28;124751;-63
2022/03/17 11:18:36;;;;;;;3.95;1.13;;;;;;;13.55;48.43;103016.28;4948143;28;124229;-64
2022/03/17 11:21:26;;;;;;;6.32;1.00;;;;;;;13.56;48.30;103027.81;4948211;28;114773;-63
2022/03/17 11:24:04;;;;;;;4.18;0.90;;;;;;;13.58;48.41;103025.97;4952963;28;114750;-63
2022/03/17 11:26:35;;;;;;;2.65;1.00;;;;;;;13.61;48.26;103036.56;4956147;28;124013;-65
2022/03/17 11:29:05;;;;;;;5.88;1.08;;;;;;;13.63;48.09;103034.75;4953060;28;123336;-62
2022/03/17 11:31:58;;;;;;;4.90;0.90;;;;;;;13.63;48.12;103034.75;4965909;28;115259;-62
2022/03/17 11:34:35;;;;;;;7.35;1.10;;;;;;;13.66;48.04;103039.16;4951057;28;115096;-64